sensor_id;sensor_type;location;lat;lon;timestamp;P1;durP1;ratioP1;P2;durP2;ratioP2
9763;SDS011;4921;43.214;27.936;2023-06-19T00:02:02;6.93;;;3.40;;
9763;SDS011;4921;43.214;27.936;2023-06-19T00:04:31;7.47;;;3.57;;
9763;SDS011;4921;43.214;27.936;2023-06-19T00:06:59;8.87;;;3.70;;
9763;SDS011;4921;43.214;27.936;2023-06-19T00:09:26;5.50;;;3.43;;
9763;SDS011;4921;43.214;27.936;2023-06-19T00:11:53;5.03;;;3.70;;
9763;SDS011;4921;43.214;27.936;2023-06-19T00:14:20;5.73;;;3.57;;
9763;SDS011;4921;43.214;27.936;2023-06-19T00:16:47;4.90;;;3.33;;
9763;SDS011;4921;43.214;27.936;2023-06-19T00:19:15;6.60;;;2.90;;
9763;SDS011;4921;43.214;27.936;2023-06-19T00:21:43;5.03;;;3.40;;
9763;SDS011;4921;43.214;27.936;2023-06-19T00:24:11;3.13;;;2.83;;
9763;SDS011;4921;43.214;27.936;2023-06-19T00:26:38;4.17;;;3.07;;
9763;SDS011;4921;43.214;27.936;2023-06-19T00:29:05;9.03;;;3.20;;
9763;SDS011;4921;43.214;27.936;2023-06-19T00:31:32;6.93;;;3.10;;
9763;SDS011;4921;43.214;27.936;2023-06-19T00:34:02;4.60;;;2.90;;
9763;SDS011;4921;43.214;27.936;2023-06-19T00:36:29;3.73;;;2.97;;
9763;SDS011;4921;43.214;27.936;2023-06-19T00:38:57;3.30;;;3.00;;
9763;SDS011;4921;43.214;27.936;2023-06-19T00:41:25;3.73;;;2.80;;
9763;SDS011;4921;43.214;27.936;2023-06-19T00:43:56;4.53;;;3.43;;
9763;SDS011;4921;43.214;27.936;2023-06-19T00:46:23;3.23;;;2.93;;
9763;SDS011;4921;43.214;27.936;2023-06-19T00:48:50;4.60;;;3.10;;
9763;SDS011;4921;43.214;27.936;2023-06-19T00:51:17;4.27;;;3.00;;
9763;SDS011;4921;43.214;27.936;2023-06-19T00:53:44;5.70;;;3.00;;
9763;SDS011;4921;43.214;27.936;2023-06-19T00:56:13;6.00;;;3.43;;
9763;SDS011;4921;43.214;27.936;2023-06-19T00:58:40;5.27;;;2.97;;
9763;SDS011;4921;43.214;27.936;2023-06-19T01:01:07;9.27;;;3.90;;
9763;SDS011;4921;43.214;27.936;2023-06-19T01:03:35;5.87;;;3.23;;
9763;SDS011;4921;43.214;27.936;2023-06-19T01:06:02;6.57;;;3.07;;
9763;SDS011;4921;43.214;27.936;2023-06-19T01:08:40;5.57;;;3.30;;
9763;SDS011;4921;43.214;27.936;2023-06-19T01:11:13;4.80;;;3.40;;
9763;SDS011;4921;43.214;27.936;2023-06-19T01:13:44;4.10;;;3.70;;
9763;SDS011;4921;43.214;27.936;2023-06-19T01:16:14;5.40;;;3.30;;
9763;SDS011;4921;43.214;27.936;2023-06-19T01:18:41;5.60;;;3.40;;
9763;SDS011;4921;43.214;27.936;2023-06-19T01:21:12;4.37;;;3.43;;
9763;SDS011;4921;43.214;27.936;2023-06-19T01:23:42;4.77;;;3.93;;
9763;SDS011;4921;43.214;27.936;2023-06-19T01:26:10;4.17;;;3.67;;
9763;SDS011;4921;43.214;27.936;2023-06-19T01:28:40;7.33;;;3.67;;
9763;SDS011;4921;43.214;27.936;2023-06-19T01:31:11;3.90;;;3.50;;
9763;SDS011;4921;43.214;27.936;2023-06-19T01:33:41;8.57;;;3.70;;
9763;SDS011;4921;43.214;27.936;2023-06-19T01:36:10;4.67;;;3.57;;
9763;SDS011;4921;43.214;27.936;2023-06-19T01:38:37;5.30;;;4.00;;
9763;SDS011;4921;43.214;27.936;2023-06-19T01:41:07;7.60;;;3.63;;
9763;SDS011;4921;43.214;27.936;2023-06-19T01:43:35;6.87;;;3.93;;
9763;SDS011;4921;43.214;27.936;2023-06-19T01:46:03;6.57;;;4.50;;
9763;SDS011;4921;43.214;27.936;2023-06-19T01:48:30;6.23;;;4.20;;
9763;SDS011;4921;43.214;27.936;2023-06-19T01:50:57;4.97;;;3.97;;
9763;SDS011;4921;43.214;27.936;2023-06-19T01:53:24;4.93;;;4.53;;
9763;SDS011;4921;43.214;27.936;2023-06-19T01:55:51;8.23;;;4.00;;
9763;SDS011;4921;43.214;27.936;2023-06-19T01:58:20;4.87;;;4.37;;
9763;SDS011;4921;43.214;27.936;2023-06-19T02:00:47;5.90;;;3.80;;
9763;SDS011;4921;43.214;27.936;2023-06-19T02:03:14;7.10;;;4.20;;
9763;SDS011;4921;43.214;27.936;2023-06-19T02:05:40;8.97;;;4.90;;
9763;SDS011;4921;43.214;27.936;2023-06-19T02:08:07;6.17;;;4.60;;
9763;SDS011;4921;43.214;27.936;2023-06-19T02:10:35;10.57;;;4.30;;
9763;SDS011;4921;43.214;27.936;2023-06-19T02:13:02;7.03;;;4.90;;
9763;SDS011;4921;43.214;27.936;2023-06-19T02:15:30;6.37;;;4.47;;
9763;SDS011;4921;43.214;27.936;2023-06-19T02:17:57;9.00;;;4.77;;
9763;SDS011;4921;43.214;27.936;2023-06-19T02:20:24;8.70;;;4.67;;
9763;SDS011;4921;43.214;27.936;2023-06-19T02:22:51;7.30;;;5.27;;
9763;SDS011;4921;43.214;27.936;2023-06-19T02:25:18;9.10;;;5.03;;
9763;SDS011;4921;43.214;27.936;2023-06-19T02:27:45;6.30;;;5.20;;
9763;SDS011;4921;43.214;27.936;2023-06-19T02:30:12;6.57;;;4.90;;
9763;SDS011;4921;43.214;27.936;2023-06-19T02:32:41;5.83;;;5.13;;
9763;SDS011;4921;43.214;27.936;2023-06-19T02:35:09;6.00;;;5.13;;
9763;SDS011;4921;43.214;27.936;2023-06-19T02:37:37;11.80;;;5.30;;
9763;SDS011;4921;43.214;27.936;2023-06-19T02:40:04;6.33;;;5.50;;
9763;SDS011;4921;43.214;27.936;2023-06-19T02:42:32;7.57;;;5.40;;
9763;SDS011;4921;43.214;27.936;2023-06-19T02:44:59;9.43;;;5.60;;
9763;SDS011;4921;43.214;27.936;2023-06-19T02:47:28;6.90;;;5.00;;
9763;SDS011;4921;43.214;27.936;2023-06-19T02:49:56;8.13;;;5.70;;
9763;SDS011;4921;43.214;27.936;2023-06-19T02:52:23;7.03;;;5.63;;
9763;SDS011;4921;43.214;27.936;2023-06-19T02:54:51;7.30;;;6.50;;
9763;SDS011;4921;43.214;27.936;2023-06-19T02:57:18;9.20;;;5.73;;
9763;SDS011;4921;43.214;27.936;2023-06-19T02:59:45;8.17;;;6.07;;
9763;SDS011;4921;43.214;27.936;2023-06-19T03:02:12;10.67;;;5.93;;
9763;SDS011;4921;43.214;27.936;2023-06-19T03:04:39;7.20;;;5.70;;
9763;SDS011;4921;43.214;27.936;2023-06-19T03:07:08;6.27;;;5.77;;
9763;SDS011;4921;43.214;27.936;2023-06-19T03:09:35;8.67;;;5.70;;
9763;SDS011;4921;43.214;27.936;2023-06-19T03:12:03;10.97;;;6.07;;
9763;SDS011;4921;43.214;27.936;2023-06-19T03:14:31;9.30;;;6.57;;
9763;SDS011;4921;43.214;27.936;2023-06-19T03:16:58;8.17;;;6.40;;
9763;SDS011;4921;43.214;27.936;2023-06-19T03:19:25;7.40;;;6.53;;
9763;SDS011;4921;43.214;27.936;2023-06-19T03:21:52;10.60;;;6.70;;
9763;SDS011;4921;43.214;27.936;2023-06-19T03:24:21;7.97;;;7.17;;
9763;SDS011;4921;43.214;27.936;2023-06-19T03:26:47;7.97;;;6.57;;
9763;SDS011;4921;43.214;27.936;2023-06-19T03:29:14;6.37;;;5.87;;
9763;SDS011;4921;43.214;27.936;2023-06-19T03:31:41;11.50;;;8.10;;
9763;SDS011;4921;43.214;27.936;2023-06-19T03:34:08;7.63;;;6.83;;
9763;SDS011;4921;43.214;27.936;2023-06-19T03:36:35;10.60;;;7.57;;
9763;SDS011;4921;43.214;27.936;2023-06-19T03:39:03;12.23;;;6.83;;
9763;SDS011;4921;43.214;27.936;2023-06-19T03:41:31;10.37;;;8.27;;
9763;SDS011;4921;43.214;27.936;2023-06-19T03:43:58;9.57;;;7.20;;
9763;SDS011;4921;43.214;27.936;2023-06-19T03:46:25;10.53;;;8.00;;
9763;SDS011;4921;43.214;27.936;2023-06-19T03:48:52;9.97;;;8.03;;
9763;SDS011;4921;43.214;27.936;2023-06-19T03:51:19;10.30;;;8.10;;
9763;SDS011;4921;43.214;27.936;2023-06-19T03:53:46;10.43;;;7.43;;
9763;SDS011;4921;43.214;27.936;2023-06-19T03:56:13;11.67;;;7.50;;
9763;SDS011;4921;43.214;27.936;2023-06-19T03:58:41;11.70;;;8.50;;
9763;SDS011;4921;43.214;27.936;2023-06-19T04:01:08;13.70;;;8.60;;
9763;SDS011;4921;43.214;27.936;2023-06-19T04:03:35;10.53;;;8.47;;
9763;SDS011;4921;43.214;27.936;2023-06-19T04:06:02;9.30;;;7.67;;
9763;SDS011;4921;43.214;27.936;2023-06-19T04:08:29;9.03;;;7.60;;
9763;SDS011;4921;43.214;27.936;2023-06-19T04:10:56;9.10;;;8.00;;
9763;SDS011;4921;43.214;27.936;2023-06-19T04:13:23;9.40;;;8.00;;
9763;SDS011;4921;43.214;27.936;2023-06-19T04:15:52;9.10;;;8.20;;
9763;SDS011;4921;43.214;27.936;2023-06-19T04:18:19;10.17;;;7.90;;
9763;SDS011;4921;43.214;27.936;2023-06-19T04:20:46;13.60;;;7.77;;
9763;SDS011;4921;43.214;27.936;2023-06-19T04:23:13;16.13;;;8.37;;
9763;SDS011;4921;43.214;27.936;2023-06-19T04:25:40;10.93;;;7.93;;
9763;SDS011;4921;43.214;27.936;2023-06-19T04:28:07;11.53;;;8.17;;
9763;SDS011;4921;43.214;27.936;2023-06-19T04:30:34;9.93;;;8.10;;
9763;SDS011;4921;43.214;27.936;2023-06-19T04:33:02;10.57;;;7.70;;
9763;SDS011;4921;43.214;27.936;2023-06-19T04:35:29;10.53;;;7.33;;
9763;SDS011;4921;43.214;27.936;2023-06-19T04:37:56;11.67;;;8.80;;
9763;SDS011;4921;43.214;27.936;2023-06-19T04:40:26;18.20;;;8.23;;
9763;SDS011;4921;43.214;27.936;2023-06-19T04:42:53;11.77;;;8.70;;
9763;SDS011;4921;43.214;27.936;2023-06-19T04:45:20;8.97;;;7.83;;
9763;SDS011;4921;43.214;27.936;2023-06-19T04:47:47;8.67;;;6.37;;
9763;SDS011;4921;43.214;27.936;2023-06-19T04:50:15;8.67;;;6.53;;
9763;SDS011;4921;43.214;27.936;2023-06-19T04:52:42;7.47;;;6.77;;
9763;SDS011;4921;43.214;27.936;2023-06-19T04:55:09;6.87;;;6.27;;
9763;SDS011;4921;43.214;27.936;2023-06-19T04:57:36;6.60;;;5.90;;
9763;SDS011;4921;43.214;27.936;2023-06-19T05:00:03;8.20;;;6.33;;
9763;SDS011;4921;43.214;27.936;2023-06-19T05:02:35;5.90;;;5.40;;
9763;SDS011;4921;43.214;27.936;2023-06-19T05:05:02;9.73;;;6.30;;
9763;SDS011;4921;43.214;27.936;2023-06-19T05:07:30;7.70;;;5.10;;
9763;SDS011;4921;43.214;27.936;2023-06-19T05:09:58;7.03;;;5.07;;
9763;SDS011;4921;43.214;27.936;2023-06-19T05:12:25;6.33;;;4.90;;
9763;SDS011;4921;43.214;27.936;2023-06-19T05:14:52;6.23;;;5.23;;
9763;SDS011;4921;43.214;27.936;2023-06-19T05:17:19;6.70;;;4.37;;
9763;SDS011;4921;43.214;27.936;2023-06-19T05:19:46;4.97;;;4.47;;
9763;SDS011;4921;43.214;27.936;2023-06-19T05:22:12;6.00;;;4.43;;
9763;SDS011;4921;43.214;27.936;2023-06-19T05:24:41;7.80;;;4.30;;
9763;SDS011;4921;43.214;27.936;2023-06-19T05:27:08;3.80;;;3.50;;
9763;SDS011;4921;43.214;27.936;2023-06-19T05:29:35;6.30;;;4.27;;
9763;SDS011;4921;43.214;27.936;2023-06-19T05:32:02;3.87;;;3.57;;
9763;SDS011;4921;43.214;27.936;2023-06-19T05:34:29;4.93;;;3.57;;
9763;SDS011;4921;43.214;27.936;2023-06-19T05:36:56;4.37;;;3.93;;
9763;SDS011;4921;43.214;27.936;2023-06-19T05:39:26;4.47;;;3.30;;
9763;SDS011;4921;43.214;27.936;2023-06-19T05:41:54;3.90;;;3.60;;
9763;SDS011;4921;43.214;27.936;2023-06-19T05:44:21;3.40;;;3.10;;
9763;SDS011;4921;43.214;27.936;2023-06-19T05:46:48;4.23;;;3.07;;
9763;SDS011;4921;43.214;27.936;2023-06-19T05:49:15;4.50;;;2.80;;
9763;SDS011;4921;43.214;27.936;2023-06-19T05:51:41;5.93;;;2.80;;
9763;SDS011;4921;43.214;27.936;2023-06-19T05:54:08;5.37;;;2.50;;
9763;SDS011;4921;43.214;27.936;2023-06-19T05:56:35;6.53;;;2.50;;
9763;SDS011;4921;43.214;27.936;2023-06-19T05:59:04;3.63;;;2.70;;
9763;SDS011;4921;43.214;27.936;2023-06-19T06:01:30;3.80;;;2.73;;
9763;SDS011;4921;43.214;27.936;2023-06-19T06:03:58;4.33;;;2.43;;
9763;SDS011;4921;43.214;27.936;2023-06-19T06:06:26;3.70;;;2.57;;
9763;SDS011;4921;43.214;27.936;2023-06-19T06:08:53;4.43;;;2.40;;
9763;SDS011;4921;43.214;27.936;2023-06-19T06:11:21;2.37;;;2.13;;
9763;SDS011;4921;43.214;27.936;2023-06-19T06:13:48;2.73;;;2.30;;
9763;SDS011;4921;43.214;27.936;2023-06-19T06:16:17;2.43;;;2.23;;
9763;SDS011;4921;43.214;27.936;2023-06-19T06:18:44;2.20;;;2.00;;
9763;SDS011;4921;43.214;27.936;2023-06-19T06:21:11;2.33;;;2.17;;
9763;SDS011;4921;43.214;27.936;2023-06-19T06:23:40;3.50;;;2.23;;
9763;SDS011;4921;43.214;27.936;2023-06-19T06:26:10;3.97;;;2.67;;
9763;SDS011;4921;43.214;27.936;2023-06-19T06:28:37;3.33;;;2.67;;
9763;SDS011;4921;43.214;27.936;2023-06-19T06:31:05;5.17;;;2.47;;
9763;SDS011;4921;43.214;27.936;2023-06-19T06:33:33;3.77;;;2.53;;
9763;SDS011;4921;43.214;27.936;2023-06-19T06:36:00;2.97;;;2.57;;
9763;SDS011;4921;43.214;27.936;2023-06-19T06:38:27;3.53;;;2.70;;
9763;SDS011;4921;43.214;27.936;2023-06-19T06:40:54;4.00;;;2.70;;
9763;SDS011;4921;43.214;27.936;2023-06-19T06:43:21;4.20;;;2.47;;
9763;SDS011;4921;43.214;27.936;2023-06-19T06:45:48;4.97;;;2.67;;
9763;SDS011;4921;43.214;27.936;2023-06-19T06:48:15;4.87;;;2.70;;
9763;SDS011;4921;43.214;27.936;2023-06-19T06:50:43;2.90;;;2.70;;
9763;SDS011;4921;43.214;27.936;2023-06-19T06:53:10;5.40;;;2.90;;
9763;SDS011;4921;43.214;27.936;2023-06-19T06:55:37;4.50;;;3.30;;
9763;SDS011;4921;43.214;27.936;2023-06-19T06:58:04;5.60;;;3.00;;
9763;SDS011;4921;43.214;27.936;2023-06-19T07:00:31;3.90;;;2.87;;
9763;SDS011;4921;43.214;27.936;2023-06-19T07:02:58;5.17;;;2.90;;
9763;SDS011;4921;43.214;27.936;2023-06-19T07:05:25;7.97;;;2.60;;
9763;SDS011;4921;43.214;27.936;2023-06-19T07:07:55;7.20;;;3.20;;
9763;SDS011;4921;43.214;27.936;2023-06-19T07:10:22;8.00;;;2.80;;
9763;SDS011;4921;43.214;27.936;2023-06-19T07:12:49;3.30;;;3.00;;
9763;SDS011;4921;43.214;27.936;2023-06-19T07:15:16;8.97;;;2.80;;
9763;SDS011;4921;43.214;27.936;2023-06-19T07:17:44;3.67;;;2.93;;
9763;SDS011;4921;43.214;27.936;2023-06-19T07:20:11;3.10;;;2.87;;
9763;SDS011;4921;43.214;27.936;2023-06-19T07:22:38;3.67;;;2.63;;
9763;SDS011;4921;43.214;27.936;2023-06-19T07:25:09;4.67;;;2.53;;
9763;SDS011;4921;43.214;27.936;2023-06-19T07:27:37;6.63;;;2.37;;
9763;SDS011;4921;43.214;27.936;2023-06-19T07:30:04;3.97;;;2.57;;
9763;SDS011;4921;43.214;27.936;2023-06-19T07:32:32;3.20;;;2.80;;
9763;SDS011;4921;43.214;27.936;2023-06-19T07:34:59;2.70;;;2.50;;
9763;SDS011;4921;43.214;27.936;2023-06-19T07:37:26;2.53;;;2.43;;
9763;SDS011;4921;43.214;27.936;2023-06-19T07:39:53;2.63;;;2.43;;
9763;SDS011;4921;43.214;27.936;2023-06-19T07:42:22;2.13;;;1.97;;
9763;SDS011;4921;43.214;27.936;2023-06-19T07:44:49;3.00;;;2.30;;
9763;SDS011;4921;43.214;27.936;2023-06-19T07:47:16;4.83;;;2.40;;
9763;SDS011;4921;43.214;27.936;2023-06-19T07:49:45;3.63;;;2.83;;
9763;SDS011;4921;43.214;27.936;2023-06-19T07:52:13;6.77;;;2.77;;
9763;SDS011;4921;43.214;27.936;2023-06-19T07:54:50;5.57;;;2.80;;
9763;SDS011;4921;43.214;27.936;2023-06-19T07:57:18;4.10;;;2.77;;
9763;SDS011;4921;43.214;27.936;2023-06-19T07:59:47;3.40;;;2.70;;
9763;SDS011;4921;43.214;27.936;2023-06-19T08:02:14;4.87;;;2.83;;
9763;SDS011;4921;43.214;27.936;2023-06-19T08:04:42;4.17;;;2.30;;
9763;SDS011;4921;43.214;27.936;2023-06-19T08:07:09;4.63;;;2.60;;
9763;SDS011;4921;43.214;27.936;2023-06-19T08:09:36;2.90;;;2.70;;
9763;SDS011;4921;43.214;27.936;2023-06-19T08:12:04;3.47;;;2.90;;
9763;SDS011;4921;43.214;27.936;2023-06-19T08:14:31;5.07;;;3.20;;
9763;SDS011;4921;43.214;27.936;2023-06-19T08:16:59;3.63;;;3.00;;
9763;SDS011;4921;43.214;27.936;2023-06-19T08:19:27;7.80;;;3.20;;
9763;SDS011;4921;43.214;27.936;2023-06-19T08:21:54;4.43;;;3.20;;
9763;SDS011;4921;43.214;27.936;2023-06-19T08:24:21;2.90;;;2.70;;
9763;SDS011;4921;43.214;27.936;2023-06-19T08:26:47;4.80;;;2.83;;
9763;SDS011;4921;43.214;27.936;2023-06-19T08:29:16;4.10;;;2.90;;
9763;SDS011;4921;43.214;27.936;2023-06-19T08:31:44;3.17;;;2.87;;
9763;SDS011;4921;43.214;27.936;2023-06-19T08:34:12;7.17;;;2.90;;
9763;SDS011;4921;43.214;27.936;2023-06-19T08:36:39;3.40;;;2.83;;
9763;SDS011;4921;43.214;27.936;2023-06-19T08:39:06;4.27;;;2.93;;
9763;SDS011;4921;43.214;27.936;2023-06-19T08:41:34;3.50;;;3.20;;
9763;SDS011;4921;43.214;27.936;2023-06-19T08:44:02;6.63;;;3.20;;
9763;SDS011;4921;43.214;27.936;2023-06-19T08:46:30;4.37;;;3.30;;
9763;SDS011;4921;43.214;27.936;2023-06-19T08:48:57;5.80;;;3.37;;
9763;SDS011;4921;43.214;27.936;2023-06-19T08:51:27;3.47;;;2.93;;
9763;SDS011;4921;43.214;27.936;2023-06-19T08:53:56;3.83;;;3.20;;
9763;SDS011;4921;43.214;27.936;2023-06-19T08:56:28;5.53;;;3.03;;
9763;SDS011;4921;43.214;27.936;2023-06-19T08:59:07;2.87;;;2.60;;
9763;SDS011;4921;43.214;27.936;2023-06-19T09:01:34;6.97;;;3.37;;
9763;SDS011;4921;43.214;27.936;2023-06-19T09:04:07;5.17;;;2.83;;
9763;SDS011;4921;43.214;27.936;2023-06-19T09:06:36;3.43;;;3.00;;
9763;SDS011;4921;43.214;27.936;2023-06-19T09:09:13;4.83;;;2.70;;
9763;SDS011;4921;43.214;27.936;2023-06-19T09:11:40;3.00;;;2.70;;
9763;SDS011;4921;43.214;27.936;2023-06-19T09:14:08;5.20;;;2.90;;
9763;SDS011;4921;43.214;27.936;2023-06-19T09:16:37;2.80;;;2.60;;
9763;SDS011;4921;43.214;27.936;2023-06-19T09:19:05;4.97;;;2.90;;
9763;SDS011;4921;43.214;27.936;2023-06-19T09:21:35;4.10;;;2.70;;
9763;SDS011;4921;43.214;27.936;2023-06-19T09:24:04;3.70;;;2.80;;
9763;SDS011;4921;43.214;27.936;2023-06-19T09:26:32;3.10;;;2.80;;
9763;SDS011;4921;43.214;27.936;2023-06-19T09:29:09;3.33;;;3.00;;
9763;SDS011;4921;43.214;27.936;2023-06-19T09:31:36;3.00;;;2.80;;
9763;SDS011;4921;43.214;27.936;2023-06-19T09:34:04;2.77;;;2.57;;
9763;SDS011;4921;43.214;27.936;2023-06-19T09:36:32;3.43;;;2.90;;
9763;SDS011;4921;43.214;27.936;2023-06-19T09:39:01;3.53;;;3.03;;
9763;SDS011;4921;43.214;27.936;2023-06-19T09:41:29;13.73;;;9.17;;
9763;SDS011;4921;43.214;27.936;2023-06-19T09:43:56;3.60;;;3.30;;
9763;SDS011;4921;43.214;27.936;2023-06-19T09:46:26;3.73;;;2.90;;
9763;SDS011;4921;43.214;27.936;2023-06-19T09:48:57;2.77;;;2.57;;
9763;SDS011;4921;43.214;27.936;2023-06-19T09:51:30;3.17;;;2.80;;
9763;SDS011;4921;43.214;27.936;2023-06-19T09:53:59;2.67;;;2.47;;
9763;SDS011;4921;43.214;27.936;2023-06-19T09:56:29;3.47;;;2.80;;
9763;SDS011;4921;43.214;27.936;2023-06-19T09:58:57;2.67;;;2.50;;
9763;SDS011;4921;43.214;27.936;2023-06-19T10:01:26;3.37;;;3.00;;
9763;SDS011;4921;43.214;27.936;2023-06-19T10:04:03;2.77;;;2.57;;
9763;SDS011;4921;43.214;27.936;2023-06-19T10:06:32;3.13;;;2.23;;
9763;SDS011;4921;43.214;27.936;2023-06-19T10:09:07;3.63;;;2.53;;
9763;SDS011;4921;43.214;27.936;2023-06-19T10:11:45;4.00;;;2.70;;
9763;SDS011;4921;43.214;27.936;2023-06-19T10:14:13;2.90;;;2.57;;
9763;SDS011;4921;43.214;27.936;2023-06-19T10:16:43;2.97;;;2.60;;
9763;SDS011;4921;43.214;27.936;2023-06-19T10:19:11;2.47;;;2.27;;
9763;SDS011;4921;43.214;27.936;2023-06-19T10:21:46;4.53;;;2.53;;
9763;SDS011;4921;43.214;27.936;2023-06-19T10:24:16;3.73;;;2.30;;
9763;SDS011;4921;43.214;27.936;2023-06-19T10:26:55;2.43;;;2.33;;
9763;SDS011;4921;43.214;27.936;2023-06-19T10:29:23;2.87;;;2.60;;
9763;SDS011;4921;43.214;27.936;2023-06-19T10:31:52;2.83;;;2.60;;
9763;SDS011;4921;43.214;27.936;2023-06-19T10:34:19;5.57;;;2.47;;
9763;SDS011;4921;43.214;27.936;2023-06-19T10:36:46;2.80;;;2.60;;
9763;SDS011;4921;43.214;27.936;2023-06-19T10:39:13;4.50;;;2.40;;
9763;SDS011;4921;43.214;27.936;2023-06-19T10:41:42;3.60;;;2.70;;
9763;SDS011;4921;43.214;27.936;2023-06-19T10:44:09;2.87;;;2.50;;
9763;SDS011;4921;43.214;27.936;2023-06-19T10:46:39;3.73;;;2.57;;
9763;SDS011;4921;43.214;27.936;2023-06-19T10:49:07;4.33;;;2.60;;
9763;SDS011;4921;43.214;27.936;2023-06-19T10:51:36;2.77;;;2.57;;
9763;SDS011;4921;43.214;27.936;2023-06-19T10:54:04;2.30;;;2.10;;
9763;SDS011;4921;43.214;27.936;2023-06-19T10:56:32;3.00;;;2.73;;
9763;SDS011;4921;43.214;27.936;2023-06-19T10:59:01;2.87;;;2.57;;
9763;SDS011;4921;43.214;27.936;2023-06-19T11:01:33;2.70;;;2.50;;
9763;SDS011;4921;43.214;27.936;2023-06-19T11:04:02;2.80;;;2.60;;
9763;SDS011;4921;43.214;27.936;2023-06-19T11:06:30;3.13;;;2.40;;
9763;SDS011;4921;43.214;27.936;2023-06-19T11:08:58;4.50;;;2.50;;
9763;SDS011;4921;43.214;27.936;2023-06-19T11:11:34;2.40;;;2.23;;
9763;SDS011;4921;43.214;27.936;2023-06-19T11:14:03;2.80;;;2.57;;
9763;SDS011;4921;43.214;27.936;2023-06-19T11:16:31;2.60;;;2.50;;
9763;SDS011;4921;43.214;27.936;2023-06-19T11:18:58;4.87;;;2.70;;
9763;SDS011;4921;43.214;27.936;2023-06-19T11:21:32;6.77;;;2.47;;
9763;SDS011;4921;43.214;27.936;2023-06-19T11:24:03;2.97;;;2.77;;
9763;SDS011;4921;43.214;27.936;2023-06-19T11:26:34;4.47;;;2.60;;
9763;SDS011;4921;43.214;27.936;2023-06-19T11:29:14;2.67;;;2.57;;
9763;SDS011;4921;43.214;27.936;2023-06-19T11:31:41;2.53;;;2.40;;
9763;SDS011;4921;43.214;27.936;2023-06-19T11:34:09;4.07;;;2.67;;
9763;SDS011;4921;43.214;27.936;2023-06-19T11:36:36;3.23;;;2.50;;
9763;SDS011;4921;43.214;27.936;2023-06-19T11:39:03;3.13;;;2.60;;
9763;SDS011;4921;43.214;27.936;2023-06-19T11:41:31;2.87;;;2.60;;
9763;SDS011;4921;43.214;27.936;2023-06-19T11:43:58;2.33;;;2.17;;
9763;SDS011;4921;43.214;27.936;2023-06-19T11:46:30;3.40;;;2.70;;
9763;SDS011;4921;43.214;27.936;2023-06-19T11:49:08;5.93;;;2.87;;
9763;SDS011;4921;43.214;27.936;2023-06-19T11:51:36;2.53;;;2.37;;
9763;SDS011;4921;43.214;27.936;2023-06-19T11:54:05;2.83;;;2.63;;
9763;SDS011;4921;43.214;27.936;2023-06-19T11:56:34;2.60;;;2.40;;
9763;SDS011;4921;43.214;27.936;2023-06-19T11:59:01;3.90;;;2.83;;
9763;SDS011;4921;43.214;27.936;2023-06-19T12:01:29;2.37;;;2.27;;
9763;SDS011;4921;43.214;27.936;2023-06-19T12:03:58;2.70;;;2.50;;
9763;SDS011;4921;43.214;27.936;2023-06-19T12:06:25;4.17;;;2.70;;
9763;SDS011;4921;43.214;27.936;2023-06-19T12:08:52;4.53;;;2.67;;
9763;SDS011;4921;43.214;27.936;2023-06-19T12:11:19;2.73;;;2.63;;
9763;SDS011;4921;43.214;27.936;2023-06-19T12:13:47;3.70;;;2.77;;
9763;SDS011;4921;43.214;27.936;2023-06-19T12:16:14;3.83;;;2.67;;
9763;SDS011;4921;43.214;27.936;2023-06-19T12:18:42;2.67;;;2.47;;
9763;SDS011;4921;43.214;27.936;2023-06-19T12:21:09;2.67;;;2.47;;
9763;SDS011;4921;43.214;27.936;2023-06-19T12:23:36;2.63;;;2.43;;
9763;SDS011;4921;43.214;27.936;2023-06-19T12:26:03;2.60;;;2.30;;
9763;SDS011;4921;43.214;27.936;2023-06-19T12:28:31;3.97;;;2.40;;
9763;SDS011;4921;43.214;27.936;2023-06-19T12:30:58;2.73;;;2.50;;
9763;SDS011;4921;43.214;27.936;2023-06-19T12:33:25;2.50;;;2.30;;
9763;SDS011;4921;43.214;27.936;2023-06-19T12:35:59;2.50;;;2.40;;
9763;SDS011;4921;43.214;27.936;2023-06-19T12:38:26;4.20;;;2.50;;
9763;SDS011;4921;43.214;27.936;2023-06-19T12:40:53;3.00;;;2.57;;
9763;SDS011;4921;43.214;27.936;2023-06-19T12:43:20;3.10;;;2.77;;
9763;SDS011;4921;43.214;27.936;2023-06-19T12:45:47;4.03;;;2.77;;
9763;SDS011;4921;43.214;27.936;2023-06-19T12:48:14;2.93;;;2.73;;
9763;SDS011;4921;43.214;27.936;2023-06-19T12:50:42;3.70;;;2.80;;
9763;SDS011;4921;43.214;27.936;2023-06-19T12:53:10;3.30;;;2.67;;
9763;SDS011;4921;43.214;27.936;2023-06-19T12:55:37;2.70;;;2.53;;
9763;SDS011;4921;43.214;27.936;2023-06-19T12:58:05;4.07;;;3.13;;
9763;SDS011;4921;43.214;27.936;2023-06-19T13:00:32;3.83;;;2.53;;
9763;SDS011;4921;43.214;27.936;2023-06-19T13:02:59;3.00;;;2.60;;
9763;SDS011;4921;43.214;27.936;2023-06-19T13:05:26;4.67;;;2.80;;
9763;SDS011;4921;43.214;27.936;2023-06-19T13:07:53;2.40;;;2.30;;
9763;SDS011;4921;43.214;27.936;2023-06-19T13:10:21;2.97;;;2.70;;
9763;SDS011;4921;43.214;27.936;2023-06-19T13:12:48;2.47;;;2.37;;
9763;SDS011;4921;43.214;27.936;2023-06-19T13:15:16;2.53;;;2.40;;
9763;SDS011;4921;43.214;27.936;2023-06-19T13:17:43;5.13;;;3.10;;
9763;SDS011;4921;43.214;27.936;2023-06-19T13:20:10;3.67;;;2.83;;
9763;SDS011;4921;43.214;27.936;2023-06-19T13:22:39;2.20;;;2.10;;
9763;SDS011;4921;43.214;27.936;2023-06-19T13:25:06;3.10;;;2.40;;
9763;SDS011;4921;43.214;27.936;2023-06-19T13:27:35;3.10;;;2.50;;
9763;SDS011;4921;43.214;27.936;2023-06-19T13:30:03;2.37;;;2.27;;
9763;SDS011;4921;43.214;27.936;2023-06-19T13:32:31;2.63;;;2.43;;
9763;SDS011;4921;43.214;27.936;2023-06-19T13:34:58;2.70;;;2.50;;
9763;SDS011;4921;43.214;27.936;2023-06-19T13:37:25;5.00;;;2.87;;
9763;SDS011;4921;43.214;27.936;2023-06-19T13:39:53;2.77;;;2.57;;
9763;SDS011;4921;43.214;27.936;2023-06-19T13:42:20;3.10;;;2.80;;
9763;SDS011;4921;43.214;27.936;2023-06-19T13:44:48;3.17;;;2.97;;
9763;SDS011;4921;43.214;27.936;2023-06-19T13:47:15;5.10;;;3.10;;
9763;SDS011;4921;43.214;27.936;2023-06-19T13:49:43;6.63;;;3.57;;
9763;SDS011;4921;43.214;27.936;2023-06-19T13:52:10;6.23;;;3.90;;
9763;SDS011;4921;43.214;27.936;2023-06-19T13:54:37;4.40;;;3.33;;
9763;SDS011;4921;43.214;27.936;2023-06-19T13:57:05;3.73;;;3.43;;
9763;SDS011;4921;43.214;27.936;2023-06-19T13:59:32;3.80;;;3.50;;
9763;SDS011;4921;43.214;27.936;2023-06-19T14:02:01;4.10;;;3.70;;
9763;SDS011;4921;43.214;27.936;2023-06-19T14:04:28;4.23;;;3.13;;
9763;SDS011;4921;43.214;27.936;2023-06-19T14:06:55;4.40;;;3.30;;
9763;SDS011;4921;43.214;27.936;2023-06-19T14:09:22;5.20;;;3.47;;
9763;SDS011;4921;43.214;27.936;2023-06-19T14:11:49;4.63;;;3.77;;
9763;SDS011;4921;43.214;27.936;2023-06-19T14:14:16;4.70;;;3.77;;
9763;SDS011;4921;43.214;27.936;2023-06-19T14:16:43;3.80;;;3.50;;
9763;SDS011;4921;43.214;27.936;2023-06-19T14:19:11;6.33;;;4.10;;
9763;SDS011;4921;43.214;27.936;2023-06-19T14:21:39;4.90;;;3.50;;
9763;SDS011;4921;43.214;27.936;2023-06-19T14:24:06;3.77;;;2.93;;
9763;SDS011;4921;43.214;27.936;2023-06-19T14:26:33;4.33;;;3.20;;
9763;SDS011;4921;43.214;27.936;2023-06-19T14:29:00;3.43;;;3.00;;
9763;SDS011;4921;43.214;27.936;2023-06-19T14:31:27;3.13;;;2.90;;
9763;SDS011;4921;43.214;27.936;2023-06-19T14:33:54;3.40;;;2.47;;
9763;SDS011;4921;43.214;27.936;2023-06-19T14:36:23;4.57;;;3.97;;
9763;SDS011;4921;43.214;27.936;2023-06-19T14:38:50;6.00;;;3.67;;
9763;SDS011;4921;43.214;27.936;2023-06-19T14:41:17;6.90;;;4.03;;
9763;SDS011;4921;43.214;27.936;2023-06-19T14:43:44;8.40;;;3.87;;
9763;SDS011;4921;43.214;27.936;2023-06-19T14:46:11;5.40;;;4.13;;
9763;SDS011;4921;43.214;27.936;2023-06-19T14:48:38;5.30;;;3.77;;
9763;SDS011;4921;43.214;27.936;2023-06-19T14:51:05;4.73;;;3.97;;
9763;SDS011;4921;43.214;27.936;2023-06-19T14:53:36;4.93;;;3.83;;
9763;SDS011;4921;43.214;27.936;2023-06-19T14:56:04;5.83;;;3.60;;
9763;SDS011;4921;43.214;27.936;2023-06-19T14:58:32;5.37;;;4.30;;
9763;SDS011;4921;43.214;27.936;2023-06-19T15:00:59;5.73;;;4.67;;
9763;SDS011;4921;43.214;27.936;2023-06-19T15:03:26;4.30;;;3.80;;
9763;SDS011;4921;43.214;27.936;2023-06-19T15:05:53;4.90;;;3.63;;